createdAt,value
2023-03-04T00:02:14.592Z,9.83
2023-03-04T00:04:41.204Z,9.50
2023-03-04T00:07:07.770Z,10.67
2023-03-04T00:09:34.361Z,11.13
2023-03-04T00:12:00.918Z,8.60
2023-03-04T00:14:29.991Z,10.23
2023-03-04T00:16:56.934Z,10.07
2023-03-04T00:19:23.541Z,15.00
2023-03-04T00:21:50.067Z,16.08
2023-03-04T00:24:16.614Z,18.07
2023-03-04T00:26:43.879Z,19.55
2023-03-04T00:29:10.478Z,19.05
2023-03-04T00:31:37.099Z,15.30
2023-03-04T00:34:03.703Z,11.95
2023-03-04T00:36:30.288Z,11.38
2023-03-04T00:38:56.829Z,11.25
2023-03-04T00:41:23.463Z,10.90
2023-03-04T00:43:49.961Z,10.77
2023-03-04T00:46:16.610Z,11.40
2023-03-04T00:48:43.156Z,8.73
2023-03-04T00:51:09.736Z,11.73
2023-03-04T00:53:36.333Z,11.83
2023-03-04T00:56:02.867Z,12.35
2023-03-04T00:58:29.538Z,12.50
2023-03-04T01:00:56.133Z,12.13
2023-03-04T01:03:22.796Z,8.00
2023-03-04T01:05:49.327Z,11.15
2023-03-04T01:08:15.867Z,11.35
2023-03-04T01:10:42.399Z,10.17
2023-03-04T01:13:08.978Z,10.83
2023-03-04T01:15:35.500Z,9.73
2023-03-04T01:18:02.333Z,9.97
2023-03-04T01:20:28.993Z,10.18
2023-03-04T01:22:55.556Z,11.65
2023-03-04T01:25:22.100Z,11.37
2023-03-04T01:27:48.677Z,11.90
2023-03-04T01:30:15.233Z,11.65
2023-03-04T01:32:41.862Z,11.73
2023-03-04T01:35:08.973Z,9.00
2023-03-04T01:37:35.724Z,12.02
2023-03-04T01:40:02.467Z,11.85
2023-03-04T01:42:33.860Z,11.93
2023-03-04T01:45:00.888Z,11.63
2023-03-04T01:47:32.842Z,12.32
2023-03-04T01:50:03.194Z,11.60
2023-03-04T01:52:29.815Z,12.63
2023-03-04T01:54:57.413Z,13.48
2023-03-04T01:57:25.704Z,13.05
2023-03-04T02:00:15.380Z,12.98
2023-03-04T02:02:42.070Z,13.70
2023-03-04T02:05:09.767Z,13.48
2023-03-04T02:07:36.516Z,12.27
2023-03-04T02:10:04.852Z,11.52
2023-03-04T02:12:31.458Z,10.65
2023-03-04T02:14:58.097Z,8.50
2023-03-04T02:17:26.409Z,11.93
2023-03-04T02:20:18.751Z,12.93
2023-03-04T02:22:57.668Z,11.90
2023-03-04T02:25:29.568Z,12.68
2023-03-04T02:27:56.176Z,12.73
2023-03-04T02:30:25.396Z,12.35
2023-03-04T02:32:52.913Z,12.35
2023-03-04T02:35:20.895Z,11.48
2023-03-04T02:37:47.625Z,12.75
2023-03-04T02:40:24.810Z,12.55
2023-03-04T02:45:46.844Z,11.27
2023-03-04T02:48:16.029Z,11.75
2023-03-04T02:50:49.221Z,11.85
2023-03-04T02:53:16.164Z,12.18
2023-03-04T02:55:43.753Z,12.23
2023-03-04T02:58:11.098Z,12.75
2023-03-04T03:00:38.146Z,11.77
2023-03-04T03:03:05.213Z,12.27
2023-03-04T03:05:33.861Z,12.90
2023-03-04T03:08:00.534Z,12.13
2023-03-04T03:10:27.336Z,12.93
2023-03-04T03:12:53.948Z,12.57
2023-03-04T03:15:21.047Z,11.88
2023-03-04T03:17:47.774Z,12.05
2023-03-04T03:20:15.912Z,11.93
2023-03-04T03:22:42.996Z,13.15
2023-03-04T03:25:12.167Z,14.70
2023-03-04T03:27:38.812Z,14.68
2023-03-04T03:30:06.732Z,14.60
2023-03-04T03:32:33.743Z,15.20
2023-03-04T03:35:00.407Z,16.02
2023-03-04T03:37:27.341Z,15.45
2023-03-04T03:39:53.841Z,15.57
2023-03-04T03:42:20.418Z,14.80
2023-03-04T03:44:47.054Z,15.48
2023-03-04T03:47:13.636Z,15.18
2023-03-04T03:49:40.396Z,15.90
2023-03-04T03:52:08.431Z,14.88
2023-03-04T03:54:35.138Z,14.82
2023-03-04T03:57:01.667Z,16.13
2023-03-04T03:59:28.323Z,15.32
2023-03-04T04:01:55.065Z,15.30
2023-03-04T04:04:21.705Z,15.13
2023-03-04T04:06:48.246Z,14.32
2023-03-04T04:09:14.826Z,15.43
2023-03-04T04:11:41.397Z,15.07
2023-03-04T04:14:11.637Z,14.27
2023-03-04T04:16:38.272Z,15.10
2023-03-04T04:19:04.843Z,14.85
2023-03-04T04:21:31.396Z,15.13
2023-03-04T04:23:57.948Z,15.57
2023-03-04T04:26:24.661Z,15.67
2023-03-04T04:28:51.243Z,14.02
2023-03-04T04:31:17.866Z,15.77
2023-03-04T04:33:44.397Z,15.15
2023-03-04T04:36:14.613Z,14.97
2023-03-04T04:38:41.201Z,14.30
2023-03-04T04:41:23.556Z,14.20
2023-03-04T04:43:50.079Z,14.32
2023-03-04T04:46:17.237Z,14.70
2023-03-04T04:48:44.077Z,13.68
2023-03-04T04:51:11.833Z,14.27
2023-03-04T04:53:38.651Z,15.02
2023-03-04T04:56:16.187Z,15.32
2023-03-04T04:58:43.523Z,18.80
2023-03-04T05:03:38.114Z,17.80
2023-03-04T05:06:07.145Z,19.67
2023-03-04T05:08:33.785Z,20.17
2023-03-04T05:11:00.958Z,21.35
2023-03-04T05:13:28.063Z,19.95
2023-03-04T05:15:56.726Z,18.77
2023-03-04T05:18:25.104Z,16.92
2023-03-04T05:20:56.380Z,17.48
2023-03-04T05:23:23.688Z,16.17
2023-03-04T05:25:50.367Z,17.40
2023-03-04T05:28:17.259Z,16.67
2023-03-04T05:30:45.339Z,18.55
2023-03-04T05:33:13.988Z,20.92
2023-03-04T05:35:41.802Z,24.73
2023-03-04T05:38:10.885Z,29.73
2023-03-04T05:40:38.003Z,27.80
2023-03-04T05:43:05.304Z,25.10
2023-03-04T05:45:31.976Z,27.10
2023-03-04T05:47:58.550Z,27.92
2023-03-04T05:50:26.141Z,25.27
2023-03-04T05:52:52.840Z,22.73
2023-03-04T05:55:19.913Z,22.88
2023-03-04T05:57:47.096Z,22.92
2023-03-04T06:00:15.737Z,21.23
2023-03-04T06:02:43.945Z,19.83
2023-03-04T06:05:12.403Z,20.42
2023-03-04T06:07:39.253Z,20.77
2023-03-04T06:10:06.987Z,19.17
2023-03-04T06:12:33.592Z,19.50
2023-03-04T06:15:00.157Z,21.45
2023-03-04T06:17:26.676Z,23.70
2023-03-04T06:19:53.229Z,20.92
2023-03-04T06:22:19.835Z,23.27
2023-03-04T06:24:46.380Z,21.27
2023-03-04T06:27:13.568Z,22.02
2023-03-04T06:29:40.331Z,20.17
2023-03-04T06:32:06.947Z,21.50
2023-03-04T06:34:33.840Z,24.52
2023-03-04T06:37:00.584Z,22.63
2023-03-04T06:39:27.195Z,22.73
2023-03-04T06:41:53.730Z,23.95
2023-03-04T06:44:20.392Z,24.58
2023-03-04T06:46:46.983Z,30.58
2023-03-04T06:49:13.629Z,23.83
2023-03-04T06:51:40.330Z,21.73
2023-03-04T06:54:06.937Z,22.05
2023-03-04T06:56:33.555Z,26.85
2023-03-04T06:59:00.138Z,26.40
2023-03-04T07:01:28.607Z,27.60
2023-03-04T07:03:56.625Z,24.35
2023-03-04T07:06:26.135Z,22.35
2023-03-04T07:08:53.447Z,20.52
2023-03-04T07:11:22.047Z,20.17
2023-03-04T07:13:49.092Z,20.67
2023-03-04T07:16:18.303Z,45.67
2023-03-04T07:18:46.111Z,41.15
2023-03-04T07:21:14.054Z,41.17
2023-03-04T07:23:41.230Z,33.40
2023-03-04T07:26:08.363Z,31.35
2023-03-04T07:28:36.428Z,31.27
2023-03-04T07:31:19.290Z,32.67
2023-03-04T07:33:45.943Z,31.08
2023-03-04T07:36:14.923Z,28.40
2023-03-04T07:38:48.557Z,23.67
2023-03-04T07:41:15.893Z,21.25
2023-03-04T07:46:10.348Z,20.27
2023-03-04T07:48:37.555Z,18.63
2023-03-04T07:51:19.220Z,19.00
2023-03-04T07:53:48.089Z,17.85
2023-03-04T07:56:17.507Z,16.38
2023-03-04T07:58:44.619Z,18.00
2023-03-04T08:01:17.164Z,18.27
2023-03-04T08:03:44.156Z,19.27
2023-03-04T08:06:14.064Z,20.60
2023-03-04T08:08:41.330Z,20.10
2023-03-04T08:11:11.115Z,23.52
2023-03-04T08:13:38.168Z,24.10
2023-03-04T08:16:05.541Z,21.85
2023-03-04T08:20:58.650Z,32.33
2023-03-04T08:23:25.619Z,15.73
2023-03-04T08:25:52.257Z,19.63
2023-03-04T08:28:19.012Z,20.13
2023-03-04T08:30:45.673Z,18.10
2023-03-04T08:33:12.302Z,16.85
2023-03-04T08:35:40.957Z,17.60
2023-03-04T08:38:07.668Z,18.05
2023-03-04T08:40:34.297Z,16.15
2023-03-04T08:43:00.943Z,15.32
2023-03-04T08:45:27.698Z,15.05
2023-03-04T08:47:54.260Z,14.20
2023-03-04T08:50:22.563Z,15.80
2023-03-04T08:52:49.297Z,16.20
2023-03-04T08:55:15.970Z,14.55
2023-03-04T08:57:43.018Z,17.38
2023-03-04T09:00:10.536Z,16.75
2023-03-04T09:02:37.121Z,22.38
2023-03-04T09:05:04.442Z,21.45
2023-03-04T09:07:31.012Z,20.48
2023-03-04T09:09:57.571Z,19.90
2023-03-04T09:12:24.142Z,18.70
2023-03-04T09:15:04.570Z,15.33
2023-03-04T09:17:35.316Z,16.15
2023-03-04T09:20:04.242Z,30.60
2023-03-04T09:22:31.401Z,17.10
2023-03-04T09:24:57.948Z,17.10
2023-03-04T09:27:24.622Z,16.40
2023-03-04T09:29:51.294Z,15.23
2023-03-04T09:32:18.099Z,14.65
2023-03-04T09:34:44.934Z,15.13
2023-03-04T09:37:11.614Z,15.10
2023-03-04T09:39:38.267Z,14.63
2023-03-04T09:42:07.637Z,10.88
2023-03-04T09:44:43.906Z,13.55
2023-03-04T09:47:20.179Z,13.45
2023-03-04T09:49:58.005Z,14.67
2023-03-04T09:52:47.457Z,14.35
2023-03-04T09:55:31.578Z,17.92
2023-03-04T09:58:06.906Z,19.35
2023-03-04T10:00:41.590Z,15.75
2023-03-04T10:03:32.876Z,16.73
2023-03-04T10:06:02.442Z,20.42
2023-03-04T10:08:38.414Z,19.08
2023-03-04T10:11:13.444Z,16.25
2023-03-04T10:14:06.120Z,13.50
2023-03-04T10:16:42.569Z,20.05
2023-03-04T10:19:15.251Z,14.10
2023-03-04T10:21:46.549Z,14.98
2023-03-04T10:24:17.953Z,15.43
2023-03-04T10:26:47.941Z,15.80
2023-03-04T10:29:18.391Z,15.45
2023-03-04T10:31:46.012Z,16.33
2023-03-04T10:34:15.183Z,14.93
2023-03-04T10:37:00.981Z,16.35
2023-03-04T10:39:32.043Z,16.63
2023-03-04T10:42:04.175Z,16.88
2023-03-04T10:44:32.442Z,15.95
2023-03-04T10:46:59.530Z,15.27
2023-03-04T10:49:28.620Z,15.00
2023-03-04T10:52:03.662Z,13.82
2023-03-04T10:54:41.922Z,13.93
2023-03-04T10:57:21.765Z,13.32
2023-03-04T10:59:59.565Z,12.05
2023-03-04T11:02:34.500Z,12.00
2023-03-04T11:05:17.607Z,10.48
2023-03-04T11:07:59.361Z,11.82
2023-03-04T11:10:36.701Z,10.98
2023-03-04T11:13:12.577Z,12.50
2023-03-04T11:16:02.353Z,11.15
2023-03-04T11:18:40.338Z,11.80
2023-03-04T11:21:08.148Z,10.18
2023-03-04T11:23:43.266Z,10.60
2023-03-04T11:26:15.743Z,11.43
2023-03-04T11:28:49.331Z,10.68
2023-03-04T11:31:21.396Z,10.25
2023-03-04T11:34:01.578Z,10.27
2023-03-04T11:36:46.116Z,7.82
2023-03-04T11:39:45.365Z,9.05
2023-03-04T11:42:24.283Z,8.38
2023-03-04T11:44:52.002Z,7.72
2023-03-04T11:47:41.992Z,9.00
2023-03-04T11:50:15.003Z,9.65
2023-03-04T11:52:51.518Z,8.68
2023-03-04T11:55:20.811Z,11.00
2023-03-04T11:58:13.658Z,11.88
2023-03-04T12:00:45.699Z,11.15
2023-03-04T12:03:59.344Z,10.23
2023-03-04T12:06:35.934Z,9.75
2023-03-04T12:09:34.777Z,9.73
2023-03-04T12:12:32.447Z,11.20
2023-03-04T12:15:09.588Z,9.80
2023-03-04T12:18:13.955Z,20.80
2023-03-04T12:21:14.908Z,15.63
2023-03-04T12:24:00.129Z,8.35
2023-03-04T12:26:45.611Z,11.85
2023-03-04T12:29:35.163Z,7.25
2023-03-04T12:32:07.822Z,8.80
2023-03-04T12:35:21.781Z,7.38
2023-03-04T12:37:54.191Z,7.55
2023-03-04T12:40:27.552Z,7.95
2023-03-04T12:43:21.978Z,11.18
2023-03-04T12:45:57.532Z,8.52
2023-03-04T12:48:39.305Z,7.25
2023-03-04T12:51:24.475Z,8.85
2023-03-04T12:54:15.559Z,8.60
2023-03-04T12:56:48.854Z,7.45
2023-03-04T12:59:21.310Z,8.00
2023-03-04T13:02:25.255Z,9.82
2023-03-04T13:05:15.155Z,8.25
2023-03-04T13:07:47.756Z,8.98
2023-03-04T13:10:16.841Z,8.02
2023-03-04T13:12:53.400Z,7.60
2023-03-04T13:15:23.043Z,9.05
2023-03-04T13:17:58.043Z,8.70
2023-03-04T13:20:32.049Z,8.68
2023-03-04T13:23:13.744Z,8.93
2023-03-04T13:25:55.319Z,7.80
2023-03-04T13:28:23.611Z,8.45
2023-03-04T13:30:56.145Z,8.57
2023-03-04T13:33:22.706Z,8.25
2023-03-04T13:36:29.609Z,9.20
2023-03-04T13:39:02.988Z,9.73
2023-03-04T13:41:31.588Z,10.43
2023-03-04T13:44:02.750Z,8.60
2023-03-04T13:46:39.691Z,15.10
2023-03-04T13:49:16.170Z,10.73
2023-03-04T13:51:46.302Z,9.25
2023-03-04T13:54:30.587Z,11.18
2023-03-04T13:57:00.238Z,10.88
2023-03-04T13:59:44.738Z,14.48
2023-03-04T14:02:15.913Z,13.65
2023-03-04T14:04:54.945Z,12.13
2023-03-04T14:07:29.091Z,15.40
2023-03-04T14:10:07.486Z,9.98
2023-03-04T14:12:37.527Z,10.18
2023-03-04T14:15:05.943Z,9.07
2023-03-04T14:17:37.006Z,9.93
2023-03-04T14:20:05.397Z,13.27
2023-03-04T14:22:41.695Z,9.82
2023-03-04T14:25:29.860Z,20.83
2023-03-04T14:28:12.025Z,14.63
2023-03-04T14:30:43.194Z,14.05
2023-03-04T14:33:17.768Z,8.27
2023-03-04T14:35:50.092Z,8.88
2023-03-04T14:38:26.606Z,8.82
2023-03-04T14:41:02.851Z,9.02
2023-03-04T14:43:32.537Z,9.47
2023-03-04T14:46:02.427Z,8.43
2023-03-04T14:48:32.304Z,16.52
2023-03-04T14:51:00.921Z,8.30
2023-03-04T14:53:29.669Z,7.95
2023-03-04T14:56:05.870Z,8.82
2023-03-04T14:58:34.801Z,8.70
2023-03-04T15:01:13.459Z,9.52
2023-03-04T15:03:43.672Z,8.00
2023-03-04T15:06:53.230Z,9.75
2023-03-04T15:09:26.274Z,11.70
2023-03-04T15:11:59.135Z,10.07
2023-03-04T15:14:43.788Z,10.30
2023-03-04T15:17:29.266Z,11.18
2023-03-04T15:20:06.847Z,12.52
2023-03-04T15:23:03.906Z,10.27
2023-03-04T15:25:30.940Z,10.80
2023-03-04T15:27:58.816Z,9.35
2023-03-04T15:30:29.987Z,10.18
2023-03-04T15:32:57.968Z,8.68
2023-03-04T15:35:27.515Z,10.40
2023-03-04T15:37:56.153Z,11.82
2023-03-04T15:40:27.778Z,13.63
2023-03-04T15:42:56.479Z,9.25
2023-03-04T15:45:28.957Z,11.57
2023-03-04T15:47:55.607Z,13.73
2023-03-04T15:50:26.639Z,16.17
2023-03-04T15:52:56.994Z,12.82
2023-03-04T15:55:23.623Z,11.90
2023-03-04T15:57:54.314Z,11.43
2023-03-04T16:00:21.706Z,10.65
2023-03-04T16:05:15.982Z,14.27
2023-03-04T16:07:46.399Z,21.75
2023-03-04T16:10:21.943Z,23.42
2023-03-04T16:12:49.840Z,26.50
2023-03-04T16:15:20.206Z,29.85
2023-03-04T16:17:47.417Z,24.65
2023-03-04T16:20:16.378Z,20.55
2023-03-04T16:22:45.582Z,21.25
2023-03-04T16:25:16.945Z,19.13
2023-03-04T16:27:44.170Z,12.32
2023-03-04T16:30:21.722Z,10.88
2023-03-04T16:32:48.328Z,9.85
2023-03-04T16:35:16.649Z,9.63
2023-03-04T16:37:43.960Z,10.30
2023-03-04T16:40:26.594Z,13.98
2023-03-04T16:42:53.369Z,13.80
2023-03-04T16:45:26.143Z,23.17
2023-03-04T16:47:53.413Z,24.67
2023-03-04T16:50:27.097Z,14.52
2023-03-04T16:52:55.521Z,13.88
2023-03-04T16:55:23.830Z,13.50
2023-03-04T16:57:50.797Z,10.57
2023-03-04T17:00:19.908Z,11.98
2023-03-04T17:02:57.343Z,13.23
2023-03-04T17:05:27.308Z,12.68
2023-03-04T17:07:53.902Z,11.90
2023-03-04T17:10:21.238Z,12.98
2023-03-04T17:12:48.054Z,17.35
2023-03-04T17:15:15.366Z,13.52
2023-03-04T17:22:37.870Z,14.43
2023-03-04T17:25:04.870Z,12.73
2023-03-04T17:27:31.826Z,15.02
2023-03-04T17:29:58.407Z,15.70
2023-03-04T17:32:27.488Z,13.32
2023-03-04T17:34:57.389Z,13.48
2023-03-04T17:37:24.023Z,15.50
2023-03-04T17:39:51.095Z,18.48
2023-03-04T17:42:18.452Z,17.17
2023-03-04T17:47:12.710Z,13.95
2023-03-04T17:49:39.398Z,15.10
2023-03-04T17:52:06.297Z,27.80
2023-03-04T17:54:32.992Z,34.88
2023-03-04T17:56:59.637Z,56.35
2023-03-04T17:59:26.224Z,75.07
2023-03-04T18:01:54.314Z,47.95
2023-03-04T18:04:21.374Z,38.17
2023-03-04T18:06:48.097Z,57.08
2023-03-04T18:09:14.960Z,12.15
2023-03-04T18:11:42.463Z,10.52
2023-03-04T18:14:09.150Z,10.50
2023-03-04T18:16:35.928Z,10.20
2023-03-04T18:19:02.953Z,12.43
2023-03-04T18:21:30.593Z,12.23
2023-03-04T18:23:57.921Z,10.95
2023-03-04T18:26:25.797Z,10.93
2023-03-04T18:28:54.507Z,11.15
2023-03-04T18:31:23.046Z,10.77
2023-03-04T18:33:49.726Z,10.38
2023-03-04T18:36:16.678Z,11.35
2023-03-04T18:38:43.764Z,11.02
2023-03-04T18:41:12.940Z,11.38
2023-03-04T18:43:40.092Z,11.27
2023-03-04T18:46:17.058Z,12.27
2023-03-04T18:48:55.216Z,10.70
2023-03-04T18:51:22.109Z,12.27
2023-03-04T18:53:48.647Z,13.73
2023-03-04T18:56:18.409Z,12.48
2023-03-04T18:58:47.596Z,11.45
2023-03-04T19:01:16.955Z,10.30
2023-03-04T19:03:44.836Z,10.32
2023-03-04T19:06:12.037Z,11.20
2023-03-04T19:08:38.784Z,11.75
2023-03-04T19:11:08.306Z,12.35
2023-03-04T19:13:35.161Z,11.27
2023-03-04T19:16:01.713Z,14.10
2023-03-04T19:18:28.973Z,12.10
2023-03-04T19:20:55.617Z,11.40
2023-03-04T19:23:22.547Z,10.52
2023-03-04T19:25:49.110Z,11.10
2023-03-04T19:28:15.676Z,11.17
2023-03-04T19:30:42.332Z,10.93
2023-03-04T19:33:10.471Z,9.65
2023-03-04T19:35:41.857Z,11.80
2023-03-04T19:38:09.235Z,10.95
2023-03-04T19:43:07.836Z,12.02
2023-03-04T19:45:35.041Z,13.65
2023-03-04T19:48:03.110Z,13.02
2023-03-04T19:50:29.826Z,12.68
2023-03-04T19:52:56.991Z,11.43
2023-03-04T19:55:23.747Z,10.93
2023-03-04T19:57:50.400Z,12.38
2023-03-04T20:00:17.501Z,11.80
2023-03-04T20:02:46.745Z,11.20
2023-03-04T20:05:13.633Z,10.57
2023-03-04T20:07:40.600Z,9.63
2023-03-04T20:10:07.934Z,9.70
2023-03-04T20:15:05.740Z,14.18
2023-03-04T20:17:32.304Z,12.90
2023-03-04T20:19:58.825Z,13.38
2023-03-04T20:22:25.397Z,14.80
2023-03-04T20:24:55.004Z,13.77
2023-03-04T20:27:21.811Z,11.65
2023-03-04T20:29:49.253Z,11.27
2023-03-04T20:32:19.242Z,10.20
2023-03-04T20:34:47.655Z,10.30
2023-03-04T20:37:14.275Z,10.48
2023-03-04T20:39:40.856Z,10.65
2023-03-04T20:42:07.441Z,7.90
2023-03-04T20:44:35.584Z,10.90
2023-03-04T20:47:03.221Z,10.52
2023-03-04T20:49:29.929Z,10.52
2023-03-04T20:52:06.568Z,18.35
2023-03-04T20:54:35.398Z,21.45
2023-03-04T20:57:02.089Z,20.52
2023-03-04T20:59:28.914Z,18.40
2023-03-04T21:01:55.529Z,19.20
2023-03-04T21:04:23.275Z,18.08
2023-03-04T21:06:51.675Z,18.95
2023-03-04T21:09:20.931Z,22.00
2023-03-04T21:11:48.593Z,19.42
2023-03-04T21:14:22.056Z,18.77
2023-03-04T21:16:51.252Z,19.38
2023-03-04T21:19:21.070Z,22.15
2023-03-04T21:21:49.609Z,23.42
2023-03-04T21:24:19.364Z,18.40
2023-03-04T21:26:47.725Z,19.70
2023-03-04T21:29:23.331Z,18.92
2023-03-04T21:32:23.782Z,17.00
2023-03-04T21:34:52.667Z,18.58
2023-03-04T21:37:20.986Z,19.08
2023-03-04T21:39:47.698Z,21.33
2023-03-04T21:42:14.406Z,21.63
2023-03-04T21:44:49.053Z,17.23
2023-03-04T21:47:17.101Z,22.75
2023-03-04T21:49:44.961Z,22.63
2023-03-04T21:52:11.696Z,20.77
2023-03-04T21:54:38.361Z,21.63
2023-03-04T21:57:05.115Z,20.85
2023-03-04T21:59:31.643Z,21.52
2023-03-04T22:01:58.446Z,14.90
2023-03-04T22:04:25.086Z,19.80
2023-03-04T22:06:51.864Z,18.13
2023-03-04T22:09:18.477Z,15.88
2023-03-04T22:11:45.095Z,14.10
2023-03-04T22:14:12.703Z,14.35
2023-03-04T22:16:54.089Z,13.48
2023-03-04T22:19:23.265Z,13.70
2023-03-04T22:21:51.382Z,13.63
2023-03-04T22:24:18.273Z,12.45
2023-03-04T22:26:44.986Z,12.05
2023-03-04T22:29:11.573Z,13.07
2023-03-04T22:31:38.761Z,13.15
2023-03-04T22:34:11.194Z,13.05
2023-03-04T22:36:40.695Z,13.88
2023-03-04T22:39:09.932Z,13.70
2023-03-04T22:41:37.061Z,14.00
2023-03-04T22:44:06.226Z,14.02
2023-03-04T22:46:35.073Z,13.65
2023-03-04T22:49:05.172Z,13.75
2023-03-04T22:51:32.383Z,14.63
2023-03-04T22:53:58.970Z,13.38
2023-03-04T22:56:25.600Z,14.15
2023-03-04T22:58:52.414Z,18.70
2023-03-04T23:01:20.382Z,18.30
2023-03-04T23:03:48.801Z,16.95
2023-03-04T23:06:25.304Z,19.35
2023-03-04T23:08:52.703Z,18.08
2023-03-04T23:13:53.188Z,13.88
2023-03-04T23:16:20.619Z,14.43
2023-03-04T23:21:20.530Z,14.63
2023-03-04T23:23:48.075Z,14.48
2023-03-04T23:26:23.728Z,13.45
2023-03-04T23:28:50.912Z,14.27
2023-03-04T23:31:18.968Z,14.18
2023-03-04T23:33:47.848Z,14.30
2023-03-04T23:36:16.869Z,14.52
2023-03-04T23:38:45.377Z,14.90
2023-03-04T23:41:13.825Z,14.70
2023-03-04T23:43:41.050Z,18.75
2023-03-04T23:46:11.754Z,17.08
2023-03-04T23:48:39.648Z,18.10
2023-03-04T23:51:06.685Z,19.85
2023-03-04T23:53:34.503Z,19.20
2023-03-04T23:56:01.123Z,17.55
2023-03-04T23:58:27.769Z,17.88
